Time;durP1;ratioP1;P1;durP2;ratioP2;P2;SDS_P1;SDS_P2;PMS_P1;PMS_P2;Temp;Humidity;BMP_temperature;BMP_pressure;BME280_temperature;BME280_humidity;BME280_pressure;Samples;Min_cycle;Max_cycle;Signal;HPM_P1;HPM_P2
2021/03/20 00:01:02;;;;;;;5.63;4.20;;;;;;;5.46;35.98;102405.38;5055323;28;20476;-72
2021/03/20 00:03:33;;;;;;;5.47;3.97;;;;;;;5.43;36.02;102402.78;5057997;28;20491;-72
2021/03/20 00:06:02;;;;;;;5.85;3.83;;;;;;;5.40;36.33;102411.94;5058165;28;20048;-71
2021/03/20 00:08:41;;;;;;;6.05;3.85;;;;;;;5.37;36.32;102411.16;5045308;28;20543;-72
2021/03/20 00:11:09;;;;;;;5.68;3.60;;;;;;;5.33;36.08;102412.25;5047270;28;20033;-72
2021/03/20 00:13:36;;;;;;;4.90;3.55;;;;;;;5.31;36.22;102411.41;5044849;28;20051;-72
2021/03/20 00:16:05;;;;;;;6.00;4.07;;;;;;;5.28;36.32;102403.38;5053833;28;20049;-72
2021/03/20 00:18:33;;;;;;;6.18;3.78;;;;;;;5.24;36.23;102408.06;5050577;28;20036;-72
2021/03/20 00:21:00;;;;;;;4.80;3.45;;;;;;;5.21;36.33;102406.34;5035265;28;20087;-72
2021/03/20 00:23:29;;;;;;;5.65;3.70;;;;;;;5.20;36.53;102409.13;5053538;28;20063;-71
2021/03/20 00:25:58;;;;;;;5.07;3.50;;;;;;;5.16;36.55;102413.78;5060790;28;20067;-71
2021/03/20 00:28:28;;;;;;;5.63;3.50;;;;;;;5.16;36.58;102421.03;5018982;28;20480;-72
2021/03/20 00:30:57;;;;;;;5.88;3.75;;;;;;;5.13;36.80;102419.31;5030679;28;20076;-71
2021/03/20 00:33:26;;;;;;;4.95;3.30;;;;;;;5.12;36.50;102422.97;5042926;28;20040;-72
2021/03/20 00:35:55;;;;;;;5.70;3.55;;;;;;;5.11;36.94;102425.75;5041270;28;20725;-72
2021/03/20 00:38:24;;;;;;;5.70;3.63;;;;;;;5.09;36.64;102419.53;5013369;28;20048;-72
2021/03/20 00:40:51;;;;;;;5.93;3.50;;;;;;;5.07;36.58;102419.56;5045516;28;20040;-72
2021/03/20 00:43:19;;;;;;;5.28;3.50;;;;;;;5.06;36.96;102415.09;5062696;28;20087;-72
2021/03/20 00:45:46;;;;;;;5.43;3.28;;;;;;;5.06;36.62;102416.91;5035127;28;20041;-72
2021/03/20 00:48:16;;;;;;;4.47;3.30;;;;;;;5.05;37.09;102418.75;5052570;28;20571;-72
2021/03/20 00:50:45;;;;;;;5.63;3.83;;;;;;;5.04;36.87;102419.69;5029257;28;20439;-72
2021/03/20 00:53:18;;;;;;;5.65;3.83;;;;;;;5.02;36.75;102424.28;5033773;28;20119;-72
2021/03/20 00:55:46;;;;;;;4.82;3.40;;;;;;;5.03;37.03;102427.88;5061461;28;20132;-72
2021/03/20 00:58:22;;;;;;;4.97;3.67;;;;;;;5.04;37.26;102429.63;5044932;28;20052;-72
2021/03/20 01:00:49;;;;;;;5.60;4.05;;;;;;;4.99;36.99;102426.22;5049385;28;20123;-72
2021/03/20 01:03:16;;;;;;;5.50;3.85;;;;;;;4.97;37.14;102430.81;5057268;28;20384;-72
2021/03/20 01:05:45;;;;;;;5.32;4.03;;;;;;;4.98;37.00;102432.59;5056145;28;20616;-72
2021/03/20 01:08:13;;;;;;;5.38;4.13;;;;;;;4.95;36.88;102432.69;5052139;28;20052;-72
2021/03/20 01:10:41;;;;;;;5.10;3.65;;;;;;;4.94;36.96;102445.38;5060547;28;20045;-72
2021/03/20 01:13:08;;;;;;;6.20;4.03;;;;;;;4.93;36.90;102442.75;5041441;28;20049;-72
2021/03/20 01:15:36;;;;;;;5.30;3.75;;;;;;;4.90;37.07;102450.97;5045898;28;20053;-72
2021/03/20 01:18:05;;;;;;;6.38;3.65;;;;;;;4.88;37.33;102447.44;5044192;28;20139;-72
2021/03/20 01:20:33;;;;;;;4.90;3.53;;;;;;;4.86;37.29;102450.19;5037420;28;20064;-72
2021/03/20 01:23:01;;;;;;;6.00;3.47;;;;;;;4.84;37.00;102458.41;5045124;28;20047;-72
2021/03/20 01:25:29;;;;;;;5.93;3.95;;;;;;;4.81;37.16;102449.50;5035683;28;20047;-72
2021/03/20 01:27:56;;;;;;;6.03;3.58;;;;;;;4.80;37.18;102456.75;5045760;28;20033;-72
2021/03/20 01:30:27;;;;;;;5.70;3.63;;;;;;;4.79;37.27;102454.97;5032390;28;20048;-72
2021/03/20 01:32:54;;;;;;;5.78;3.75;;;;;;;4.77;37.45;102462.25;5055056;28;20079;-72
2021/03/20 01:35:23;;;;;;;5.57;3.88;;;;;;;4.76;37.18;102465.94;5053830;28;20037;-72
2021/03/20 01:37:50;;;;;;;5.55;3.92;;;;;;;4.75;37.43;102468.72;5054320;28;20040;-72
2021/03/20 01:40:22;;;;;;;5.00;3.45;;;;;;;4.75;37.47;102466.00;5050021;28;20045;-72
2021/03/20 01:42:49;;;;;;;5.85;3.50;;;;;;;4.73;37.39;102470.56;5054687;28;20075;-73
2021/03/20 01:45:23;;;;;;;6.13;3.95;;;;;;;4.73;37.73;102466.03;5050479;28;20116;-72
2021/03/20 01:47:55;;;;;;;5.07;3.45;;;;;;;4.72;37.53;102469.69;4997896;28;20057;-72
2021/03/20 01:50:28;;;;;;;6.10;3.25;;;;;;;4.68;37.52;102454.50;5056507;28;20420;-72
2021/03/20 01:52:58;;;;;;;4.85;3.15;;;;;;;4.66;37.16;102456.38;5053425;28;20045;-72
2021/03/20 01:55:28;;;;;;;5.22;3.13;;;;;;;4.66;37.19;102464.50;5035089;28;20099;-72
2021/03/20 01:57:58;;;;;;;4.35;2.83;;;;;;;4.63;36.99;102451.03;5037150;28;20045;-72
2021/03/20 02:00:31;;;;;;;5.30;3.05;;;;;;;4.61;37.29;102457.44;5052829;28;20073;-72
2021/03/20 02:03:01;;;;;;;4.82;2.88;;;;;;;4.56;36.94;102452.22;5056301;28;20457;-72
2021/03/20 02:05:31;;;;;;;4.72;2.78;;;;;;;4.54;36.85;102445.97;5055226;28;20086;-72
2021/03/20 02:08:01;;;;;;;3.70;2.50;;;;;;;4.52;37.11;102445.16;5057413;28;20048;-72
2021/03/20 02:10:36;;;;;;;3.97;2.47;;;;;;;4.50;37.39;102444.31;5047162;28;20099;-72
2021/03/20 02:13:08;;;;;;;4.20;2.55;;;;;;;4.46;37.09;102443.53;5064689;28;20051;-72
2021/03/20 02:15:41;;;;;;;5.38;2.50;;;;;;;4.45;36.87;102443.56;5041622;28;20044;-72
2021/03/20 02:18:16;;;;;;;4.28;1.92;;;;;;;4.44;37.46;102444.53;5065095;28;20036;-72
2021/03/20 02:21:10;;;;;;;4.90;3.03;;;;;;;4.40;37.40;102456.41;5047879;28;20047;-72
2021/03/20 02:24:17;;;;;;;5.57;2.65;;;;;;;4.39;37.06;102438.38;5050647;28;20064;-73
2021/03/20 02:27:23;;;;;;;4.40;2.58;;;;;;;4.35;37.24;102443.03;5054408;28;20370;-72
2021/03/20 02:30:24;;;;;;;4.70;2.70;;;;;;;4.34;37.21;102451.22;5055568;28;20052;-72
2021/03/20 02:33:12;;;;;;;4.63;2.47;;;;;;;4.31;37.25;102433.22;5060504;28;20044;-72
2021/03/20 02:35:48;;;;;;;3.65;2.33;;;;;;;4.31;37.28;102437.75;5052829;28;20136;-72
2021/03/20 02:38:27;;;;;;;4.90;2.72;;;;;;;4.31;37.24;102435.94;5023916;28;20041;-72
2021/03/20 02:41:02;;;;;;;4.03;2.30;;;;;;;4.31;37.50;102435.06;5043305;28;20071;-72
2021/03/20 02:43:40;;;;;;;3.40;2.30;;;;;;;4.32;37.60;102434.13;5041407;28;20041;-74
2021/03/20 02:46:11;;;;;;;3.80;2.35;;;;;;;4.30;37.15;102425.16;5023108;28;20094;-72
2021/03/20 02:48:47;;;;;;;3.20;2.15;;;;;;;4.35;37.56;102434.91;5047939;28;20107;-72
2021/03/20 02:51:20;;;;;;;3.88;2.33;;;;;;;4.36;37.53;102433.94;5061804;28;20103;-72
2021/03/20 02:53:56;;;;;;;5.28;2.97;;;;;;;4.39;37.35;102433.84;5055872;28;20056;-72
2021/03/20 02:56:28;;;;;;;4.22;2.45;;;;;;;4.41;37.77;102440.09;5064784;28;20045;-72
2021/03/20 02:58:59;;;;;;;3.55;2.25;;;;;;;4.41;37.66;102439.22;5046422;28;20041;-72
2021/03/20 03:01:30;;;;;;;4.47;2.45;;;;;;;4.43;37.58;102440.94;5052382;28;20041;-72
2021/03/20 03:04:00;;;;;;;4.10;2.58;;;;;;;4.46;37.50;102435.41;5042720;28;20429;-71
2021/03/20 03:06:34;;;;;;;3.50;2.47;;;;;;;4.49;37.30;102438.94;5036524;28;20045;-71
2021/03/20 03:09:04;;;;;;;;;;;;;;;4.24;37.71;102441.63;5056233;28;20052;-71
2021/03/20 03:11:37;;;;;;;4.43;2.60;;;;;;;4.44;37.40;102447.25;5051354;28;19921;-72
2021/03/20 03:14:10;;;;;;;4.82;2.50;;;;;;;4.49;37.33;102449.78;5027039;28;20081;-72
2021/03/20 03:16:41;;;;;;;3.88;2.38;;;;;;;4.48;37.03;102446.19;5048563;28;20395;-73
2021/03/20 03:19:13;;;;;;;4.32;2.70;;;;;;;4.49;37.23;102449.78;5049840;28;20049;-72
2021/03/20 03:21:45;;;;;;;3.70;2.15;;;;;;;4.49;37.32;102453.38;5048803;28;20404;-72
2021/03/20 03:24:19;;;;;;;4.95;2.40;;;;;;;4.50;37.08;102448.84;5064121;28;20052;-72
2021/03/20 03:26:53;;;;;;;5.78;2.83;;;;;;;4.48;37.10;102451.59;5060671;28;20060;-72
2021/03/20 03:29:25;;;;;;;3.38;2.17;;;;;;;4.48;37.00;102445.28;5062443;28;20094;-72
2021/03/20 03:32:00;;;;;;;4.72;2.17;;;;;;;4.48;36.98;102448.00;5055509;28;20487;-72
2021/03/20 03:34:36;;;;;;;4.45;2.22;;;;;;;4.46;37.11;102442.63;5053278;28;20119;-72
2021/03/20 03:37:09;;;;;;;4.35;2.40;;;;;;;4.43;36.64;102438.22;5063012;28;20144;-71
2021/03/20 03:39:45;;;;;;;3.90;2.47;;;;;;;4.40;36.60;102445.56;5049093;28;20037;-73
2021/03/20 03:42:14;;;;;;;5.65;2.70;;;;;;;4.39;36.51;102438.38;5063110;28;21779;-72
2021/03/20 03:44:46;;;;;;;4.55;2.42;;;;;;;4.36;36.53;102441.19;5060323;28;20044;-72
2021/03/20 03:47:15;;;;;;;4.15;2.20;;;;;;;4.31;36.20;102451.31;5045520;28;20045;-72
2021/03/20 03:49:44;;;;;;;3.78;2.20;;;;;;;4.26;36.35;102454.19;5055442;28;20044;-73
2021/03/20 03:52:12;;;;;;;3.95;2.22;;;;;;;4.20;36.37;102465.22;5047993;28;20048;-72
2021/03/20 03:54:41;;;;;;;4.43;2.38;;;;;;;4.15;36.34;102460.91;5036377;28;20048;-73
2021/03/20 03:57:34;;;;;;;3.67;2.00;;;;;;;4.11;35.69;102465.56;5062305;28;20407;-72
2021/03/20 04:00:11;;;;;;;3.95;2.00;;;;;;;4.01;35.86;102464.97;5056521;28;20052;-71
2021/03/20 04:03:03;;;;;;;4.10;2.20;;;;;;;3.97;35.73;102467.81;5048351;28;20037;-72
2021/03/20 04:05:42;;;;;;;3.80;2.10;;;;;;;3.89;36.20;102465.38;5030935;28;20402;-72
2021/03/20 04:08:18;;;;;;;3.75;2.10;;;;;;;3.85;35.94;102469.13;5050513;28;20041;-72
2021/03/20 04:10:51;;;;;;;4.25;2.08;;;;;;;3.80;36.08;102468.38;5025172;28;20480;-72
2021/03/20 04:13:29;;;;;;;4.10;2.20;;;;;;;3.76;35.73;102476.66;5053413;28;20064;-72
2021/03/20 04:16:06;;;;;;;5.03;2.10;;;;;;;3.69;35.69;102481.38;5050761;28;20045;-72
2021/03/20 04:18:44;;;;;;;3.72;1.92;;;;;;;3.66;35.72;102479.66;5027953;28;20119;-72
2021/03/20 04:21:24;;;;;;;3.88;2.05;;;;;;;3.61;35.66;102481.63;5041997;28;20044;-72
2021/03/20 04:24:02;;;;;;;3.78;1.83;;;;;;;3.58;36.20;102481.69;5051602;28;20103;-72
2021/03/20 04:26:38;;;;;;;3.28;1.85;;;;;;;3.53;35.89;102472.84;5054210;28;20515;-72
2021/03/20 04:29:11;;;;;;;4.65;1.90;;;;;;;3.51;35.91;102476.50;5060264;28;20049;-72
2021/03/20 04:31:43;;;;;;;4.00;1.73;;;;;;;3.48;36.11;102482.00;5062148;28;20033;-72
2021/03/20 04:34:17;;;;;;;2.92;1.60;;;;;;;3.46;35.92;102479.34;5055785;28;20048;-72
2021/03/20 04:36:48;;;;;;;5.35;1.70;;;;;;;3.45;36.19;102474.00;5046391;28;20037;-72
2021/03/20 04:39:19;;;;;;;2.95;1.60;;;;;;;3.43;36.24;102483.97;5034907;28;20033;-72
2021/03/20 04:41:58;;;;;;;3.65;1.85;;;;;;;3.39;36.31;102482.28;5062498;28;20049;-73
2021/03/20 04:44:27;;;;;;;3.17;1.73;;;;;;;3.39;36.02;102488.59;5052061;28;20039;-72
2021/03/20 04:46:55;;;;;;;3.45;2.10;;;;;;;3.40;36.51;102494.88;5056010;28;20048;-72
2021/03/20 04:49:36;;;;;;;3.42;1.77;;;;;;;3.42;36.46;102493.03;5068702;28;20040;-72
2021/03/20 04:52:15;;;;;;;2.73;1.43;;;;;;;3.40;36.30;102493.06;5038481;28;20045;-72
2021/03/20 04:54:46;;;;;;;3.65;1.90;;;;;;;3.41;36.25;102484.03;5043795;28;20294;-72
2021/03/20 04:57:25;;;;;;;3.40;1.70;;;;;;;3.44;36.59;102475.81;5052088;28;20048;-72
2021/03/20 05:00:05;;;;;;;3.80;1.88;;;;;;;3.47;36.23;102477.53;5052969;28;20056;-72
2021/03/20 05:02:39;;;;;;;3.15;1.70;;;;;;;3.47;36.22;102480.22;5046556;28;20476;-72
2021/03/20 05:05:21;;;;;;;3.10;1.77;;;;;;;3.50;36.33;102478.34;5047519;28;20039;-72
2021/03/20 05:07:52;;;;;;;4.15;1.95;;;;;;;3.49;36.35;102473.84;5053284;28;20504;-72
2021/03/20 05:10:30;;;;;;;3.33;1.70;;;;;;;3.51;36.20;102472.00;5053924;28;20037;-72
2021/03/20 05:12:59;;;;;;;3.50;1.90;;;;;;;3.52;36.31;102479.19;5057218;28;20040;-72
2021/03/20 05:15:30;;;;;;;3.92;1.70;;;;;;;3.51;36.16;102477.41;5059898;28;20025;-73
2021/03/20 05:17:58;;;;;;;2.80;1.80;;;;;;;3.49;35.83;102476.56;5059899;28;20040;-72
2021/03/20 05:20:26;;;;;;;3.30;1.85;;;;;;;3.48;36.23;102473.91;5052053;28;20044;-72
2021/03/20 05:22:56;;;;;;;3.50;1.90;;;;;;;3.47;35.81;102470.28;5054101;28;20119;-72
2021/03/20 05:25:25;;;;;;;3.10;1.80;;;;;;;3.45;35.97;102471.31;5060657;28;20492;-73
2021/03/20 05:27:53;;;;;;;3.10;1.65;;;;;;;3.43;36.24;102471.34;5052130;28;20395;-72
2021/03/20 05:30:22;;;;;;;2.47;1.60;;;;;;;3.43;36.09;102473.16;5054969;28;20036;-72
2021/03/20 05:32:50;;;;;;;3.75;1.70;;;;;;;3.40;36.44;102484.94;5044958;28;20042;-72
2021/03/20 05:35:24;;;;;;;3.40;1.73;;;;;;;3.42;36.25;102483.09;5039625;28;20464;-73
2021/03/20 05:37:52;;;;;;;4.18;1.95;;;;;;;3.39;36.34;102482.28;5054110;28;20346;-73
2021/03/20 05:40:25;;;;;;;3.42;1.60;;;;;;;3.40;35.80;102492.19;5043131;28;20045;-72
2021/03/20 05:43:24;;;;;;;3.90;1.90;;;;;;;3.38;36.16;102492.22;5052096;28;20425;-73
2021/03/20 05:46:07;;;;;;;2.95;1.73;;;;;;;3.36;35.85;102493.22;5054061;28;20045;-72
2021/03/20 05:48:37;;;;;;;3.17;1.70;;;;;;;3.32;35.88;102501.41;5046181;28;20041;-72
2021/03/20 05:51:32;;;;;;;4.07;1.90;;;;;;;3.31;35.50;102499.63;5050020;28;20048;-73
2021/03/20 05:54:21;;;;;;;4.00;1.73;;;;;;;3.28;36.02;102504.28;5050936;28;20132;-72
2021/03/20 05:57:03;;;;;;;4.28;1.80;;;;;;;3.26;35.97;102504.31;5055696;28;20091;-72
2021/03/20 05:59:40;;;;;;;3.83;2.10;;;;;;;3.23;35.95;102509.81;5052844;28;20115;-72
2021/03/20 06:02:21;;;;;;;4.25;1.90;;;;;;;3.24;35.71;102510.69;5048040;28;20118;-72
2021/03/20 06:04:54;;;;;;;3.40;1.80;;;;;;;3.20;35.98;102519.84;5056149;28;20482;-73
2021/03/20 06:08:03;;;;;;;3.58;1.92;;;;;;;3.18;35.80;102532.50;5046555;28;20033;-73
2021/03/20 06:10:46;;;;;;;4.50;2.08;;;;;;;3.18;35.69;102519.00;5058901;28;20037;-73
2021/03/20 06:13:47;;;;;;;2.97;1.83;;;;;;;3.13;36.19;102519.09;5053232;28;20095;-73
2021/03/20 06:16:25;;;;;;;3.90;1.98;;;;;;;3.13;35.87;102524.50;5050059;28;20034;-72
2021/03/20 06:19:19;;;;;;;4.47;2.03;;;;;;;3.13;35.81;102518.22;5042721;28;20488;-73
2021/03/20 06:22:25;;;;;;;3.80;1.85;;;;;;;3.10;36.28;102521.03;5038530;28;20449;-73
2021/03/20 06:25:19;;;;;;;4.22;2.00;;;;;;;3.07;36.19;102521.09;5052987;28;20127;-73
2021/03/20 06:27:51;;;;;;;4.35;2.05;;;;;;;3.06;36.21;102516.63;5041860;28;20044;-73
2021/03/20 06:30:32;;;;;;;3.95;2.20;;;;;;;3.07;35.99;102515.69;5047865;28;20040;-74
2021/03/20 06:33:03;;;;;;;4.75;2.33;;;;;;;3.04;35.89;102527.47;5042909;28;20036;-74
2021/03/20 06:35:38;;;;;;;4.35;1.98;;;;;;;3.04;36.19;102530.19;5055484;28;20045;-73
2021/03/20 06:38:10;;;;;;;3.75;1.88;;;;;;;3.04;36.54;102538.28;5060482;28;20572;-73
2021/03/20 06:40:47;;;;;;;4.63;2.10;;;;;;;3.06;36.50;102535.56;5009921;28;20041;-73
2021/03/20 06:43:16;;;;;;;5.65;2.30;;;;;;;3.04;36.52;102543.69;5048992;28;20477;-73
2021/03/20 06:45:44;;;;;;;3.92;2.10;;;;;;;3.06;36.30;102536.44;5060077;28;20601;-73
2021/03/20 06:48:14;;;;;;;4.05;1.90;;;;;;;3.06;36.33;102544.56;5058125;28;20041;-73
2021/03/20 06:50:44;;;;;;;5.40;2.20;;;;;;;3.08;36.41;102539.09;5060744;28;20454;-73
2021/03/20 06:53:14;;;;;;;4.35;2.40;;;;;;;3.09;36.44;102543.59;5044423;28;20037;-73
2021/03/20 06:55:44;;;;;;;5.22;2.33;;;;;;;3.10;36.05;102543.56;5049566;28;20048;-73
2021/03/20 06:58:21;;;;;;;4.38;2.38;;;;;;;3.12;36.38;102547.09;5058726;28;20064;-73
2021/03/20 07:00:51;;;;;;;4.43;2.22;;;;;;;3.12;36.13;102551.63;5054296;28;20032;-73
2021/03/20 07:03:46;;;;;;;4.97;2.30;;;;;;;3.14;36.37;102556.03;5058125;28;20037;-73
2021/03/20 07:06:20;;;;;;;4.45;2.33;;;;;;;3.18;36.70;102562.25;5022495;28;20052;-73
2021/03/20 07:08:52;;;;;;;4.18;2.20;;;;;;;3.23;36.85;102563.88;5033364;28;20132;-73
2021/03/20 07:11:26;;;;;;;4.53;1.97;;;;;;;3.26;36.92;102563.81;5054044;28;20075;-74
2021/03/20 07:14:35;;;;;;;5.00;2.30;;;;;;;3.30;36.27;102572.69;5030447;28;20415;-74
2021/03/20 07:17:07;;;;;;;4.30;2.28;;;;;;;3.37;36.50;102579.72;5050495;28;20051;-74
2021/03/20 07:19:34;;;;;;;4.00;1.90;;;;;;;3.42;36.65;102585.00;5050750;28;20493;-72
2021/03/20 07:22:06;;;;;;;5.38;2.78;;;;;;;3.45;36.46;102580.41;5050886;28;20072;-73
2021/03/20 07:24:35;;;;;;;3.97;2.30;;;;;;;3.49;36.40;102578.47;5051078;28;20068;-72
2021/03/20 07:27:07;;;;;;;5.75;2.78;;;;;;;3.52;35.86;102581.09;5050528;28;20049;-72
2021/03/20 07:29:44;;;;;;;4.55;2.22;;;;;;;3.55;35.73;102592.69;5049455;28;20083;-73
2021/03/20 07:32:15;;;;;;;5.22;2.53;;;;;;;3.55;36.08;102597.22;5050558;28;20501;-73
2021/03/20 07:34:45;;;;;;;3.60;2.30;;;;;;;3.54;35.95;102598.16;5050918;28;20124;-73
2021/03/20 07:37:22;;;;;;;4.82;2.47;;;;;;;3.54;36.21;102588.22;5050799;28;20049;-73
2021/03/20 07:39:51;;;;;;;3.80;2.30;;;;;;;3.54;35.85;102595.44;5049274;28;20041;-73
2021/03/20 07:42:30;;;;;;;4.32;2.15;;;;;;;3.56;35.54;102586.38;5030684;28;20041;-72
2021/03/20 07:45:00;;;;;;;3.60;2.25;;;;;;;3.53;36.04;102588.28;5031224;28;20447;-72
2021/03/20 07:47:30;;;;;;;4.25;2.15;;;;;;;3.54;35.64;102590.94;5049820;28;20042;-72
2021/03/20 07:50:25;;;;;;;4.70;2.25;;;;;;;3.53;35.83;102585.59;5049969;28;20075;-73
2021/03/20 07:53:18;;;;;;;3.90;2.33;;;;;;;3.53;35.64;102582.88;5022872;28;20061;-73
2021/03/20 07:56:07;;;;;;;4.40;2.38;;;;;;;3.55;36.21;102589.09;5013991;28;20246;-72
2021/03/20 07:58:41;;;;;;;3.45;2.13;;;;;;;3.60;36.42;102596.19;5031466;28;20135;-72
2021/03/20 08:01:14;;;;;;;4.35;2.50;;;;;;;3.63;36.13;102596.09;5031581;28;20480;-72
2021/03/20 08:03:52;;;;;;;5.15;2.65;;;;;;;3.68;35.78;102594.16;5029519;28;20041;-72
2021/03/20 08:06:22;;;;;;;4.75;2.40;;;;;;;3.73;36.25;102595.84;5049304;28;20044;-72
2021/03/20 08:09:09;;;;;;;4.28;2.35;;;;;;;3.78;35.83;102602.91;5049177;28;20049;-72
2021/03/20 08:11:37;;;;;;;4.70;2.50;;;;;;;3.82;36.36;102604.56;5049757;28;20048;-72
2021/03/20 08:14:10;;;;;;;4.65;2.28;;;;;;;3.91;35.96;102616.94;5031615;28;20132;-73
2021/03/20 08:16:41;;;;;;;4.38;2.70;;;;;;;3.93;36.09;102610.56;5049267;28;20431;-73
2021/03/20 08:19:14;;;;;;;4.28;2.30;;;;;;;4.01;35.78;102607.59;5046915;28;20768;-74
2021/03/20 08:22:21;;;;;;;5.07;2.80;;;;;;;4.02;35.83;102610.28;5031308;28;20512;-74
2021/03/20 08:25:16;;;;;;;4.72;2.22;;;;;;;4.08;35.64;102610.06;5048211;28;20057;-74
2021/03/20 08:27:52;;;;;;;4.78;1.98;;;;;;;4.13;35.80;102609.91;5048456;28;20049;-74
2021/03/20 08:30:42;;;;;;;5.07;2.10;;;;;;;4.19;35.46;102598.91;5049324;28;20504;-74
2021/03/20 08:33:26;;;;;;;4.18;2.20;;;;;;;4.24;35.52;102610.47;5048273;28;20041;-74
2021/03/20 08:36:06;;;;;;;5.80;2.22;;;;;;;4.29;35.63;102613.91;5043698;28;20049;-74
2021/03/20 08:38:47;;;;;;;4.35;2.88;;;;;;;4.34;34.95;102611.94;5048320;28;20044;-74
2021/03/20 08:41:27;;;;;;;4.50;2.28;;;;;;;4.38;34.87;102620.84;5048448;28;20428;-74
2021/03/20 08:44:22;;;;;;;4.22;2.15;;;;;;;4.42;34.95;102619.81;5012986;28;20468;-74
2021/03/20 08:47:23;;;;;;;5.43;2.85;;;;;;;4.41;34.47;102626.19;5013637;28;20056;-73
2021/03/20 08:50:04;;;;;;;4.80;2.60;;;;;;;4.45;34.66;102627.84;5045224;28;20041;-74
2021/03/20 08:52:43;;;;;;;4.50;2.40;;;;;;;4.50;34.85;102623.16;5047427;28;20041;-74
2021/03/20 08:55:38;;;;;;;4.45;2.45;;;;;;;4.53;34.35;102627.56;5048548;28;20140;-73
2021/03/20 08:58:15;;;;;;;7.25;2.90;;;;;;;4.55;34.35;102631.13;5048572;28;20086;-73
2021/03/20 09:00:47;;;;;;;5.32;2.53;;;;;;;4.58;34.67;102636.47;5029846;28;20130;-74
2021/03/20 09:03:20;;;;;;;4.03;2.65;;;;;;;4.57;34.55;102631.97;5049894;28;20041;-74
2021/03/20 09:05:55;;;;;;;5.57;3.17;;;;;;;4.60;34.31;102638.19;5030893;28;20447;-74
2021/03/20 09:08:29;;;;;;;4.97;2.60;;;;;;;4.65;33.96;102633.50;5048717;28;20045;-74
2021/03/20 09:11:04;;;;;;;4.72;2.80;;;;;;;4.64;33.47;102634.44;5013250;28;20048;-73
2021/03/20 09:13:39;;;;;;;5.90;3.13;;;;;;;4.68;33.56;102629.81;5048971;28;20045;-73
2021/03/20 09:16:27;;;;;;;4.97;2.58;;;;;;;4.70;33.58;102626.09;5049404;28;20040;-72
2021/03/20 09:18:55;;;;;;;5.38;2.70;;;;;;;4.73;34.55;102628.69;5051601;28;20045;-72
2021/03/20 09:21:23;;;;;;;5.20;2.70;;;;;;;4.71;34.26;102640.53;5046862;28;20041;-73
2021/03/20 09:23:51;;;;;;;4.03;2.20;;;;;;;4.77;33.83;102632.22;5049198;28;20052;-73
2021/03/20 09:26:37;;;;;;;4.65;2.20;;;;;;;4.84;32.96;102628.34;5051010;28;20045;-72
2021/03/20 09:29:14;;;;;;;4.38;2.40;;;;;;;4.82;32.82;102630.22;5064249;28;20043;-72
2021/03/20 09:32:10;;;;;;;3.78;2.08;;;;;;;4.85;32.03;102625.56;5046317;28;20064;-72
2021/03/20 09:34:48;;;;;;;3.90;1.90;;;;;;;4.94;32.26;102629.78;5019112;28;20049;-73
2021/03/20 09:37:57;;;;;;;3.10;1.80;;;;;;;4.93;30.75;102619.00;5033885;28;20057;-73
2021/03/20 09:40:42;;;;;;;3.60;1.67;;;;;;;4.99;31.46;102616.06;5043393;28;20041;-73
2021/03/20 09:43:18;;;;;;;3.20;1.90;;;;;;;5.03;31.34;102621.31;5022137;28;20052;-74
2021/03/20 09:46:47;;;;;;;3.58;1.70;;;;;;;5.07;31.33;102616.69;5028728;28;20041;-73
2021/03/20 09:49:50;;;;;;;3.70;1.98;;;;;;;5.13;30.38;102613.75;5039602;28;20523;-73
2021/03/20 09:52:41;;;;;;;3.05;1.77;;;;;;;5.21;31.15;102620.69;5054157;28;20049;-74
2021/03/20 09:55:48;;;;;;;2.83;1.60;;;;;;;5.26;30.41;102612.38;5047355;28;20060;-73
2021/03/20 09:58:39;;;;;;;2.72;1.52;;;;;;;5.31;30.31;102612.22;5041581;28;20497;-73
2021/03/20 10:01:16;;;;;;;3.05;1.52;;;;;;;5.39;30.98;102613.69;5050192;28;20053;-73
2021/03/20 10:04:18;;;;;;;3.42;1.80;;;;;;;5.46;30.66;102607.09;5051916;28;20045;-73
2021/03/20 10:07:12;;;;;;;3.70;2.00;;;;;;;5.50;30.80;102600.66;5031256;28;20260;-73
2021/03/20 10:09:53;;;;;;;5.93;1.80;;;;;;;5.60;30.91;102595.75;5000389;28;20045;-73
2021/03/20 10:12:23;;;;;;;4.35;2.35;;;;;;;5.68;32.17;102593.63;5051995;28;20051;-73
2021/03/20 10:15:14;;;;;;;3.30;1.88;;;;;;;5.78;31.10;102589.63;5059037;28;20125;-73
2021/03/20 10:18:20;;;;;;;3.63;1.90;;;;;;;5.83;30.12;102586.72;5043919;28;20124;-73
2021/03/20 10:21:14;;;;;;;3.17;1.60;;;;;;;5.94;30.29;102581.75;5046880;28;20044;-73
2021/03/20 10:23:48;;;;;;;2.90;1.60;;;;;;;6.03;29.92;102572.34;5051166;28;20051;-73
2021/03/20 10:26:24;;;;;;;3.45;1.60;;;;;;;6.12;29.56;102574.69;5032464;28;20040;-73
2021/03/20 10:28:57;;;;;;;2.92;1.50;;;;;;;6.19;30.52;102568.06;5048454;28;20033;-73
2021/03/20 10:31:27;;;;;;;3.08;1.33;;;;;;;6.26;30.07;102572.28;5037683;28;20076;-73
2021/03/20 10:34:03;;;;;;;2.72;1.50;;;;;;;6.35;28.87;102572.81;5054082;28;20045;-74
2021/03/20 10:36:34;;;;;;;3.92;1.90;;;;;;;6.38;29.99;102570.91;5042115;28;20041;-74
2021/03/20 10:39:26;;;;;;;4.65;1.77;;;;;;;6.41;27.73;102571.69;5058537;28;20036;-74
2021/03/20 10:41:59;;;;;;;3.33;1.60;;;;;;;6.45;28.60;102565.16;5035728;28;20041;-74
2021/03/20 10:44:32;;;;;;;3.15;1.60;;;;;;;6.50;29.42;102564.97;5030953;28;20042;-72
2021/03/20 10:47:14;;;;;;;3.72;1.70;;;;;;;6.54;28.07;102556.59;5037611;28;20473;-73
2021/03/20 10:49:50;;;;;;;3.17;1.85;;;;;;;6.58;28.58;102560.09;5035681;28;20499;-73
2021/03/20 10:52:20;;;;;;;2.25;1.40;;;;;;;6.61;29.44;102554.50;5051156;28;20036;-73
2021/03/20 10:54:51;;;;;;;3.30;1.50;;;;;;;6.67;28.88;102548.78;5051457;28;20048;-72
2021/03/20 10:57:21;;;;;;;3.25;1.55;;;;;;;6.70;28.98;102556.84;5055266;28;20094;-73
2021/03/20 10:59:50;;;;;;;3.35;1.65;;;;;;;6.73;29.01;102554.00;5037773;28;20061;-72
2021/03/20 11:02:25;;;;;;;3.20;1.50;;;;;;;6.79;27.28;102550.13;5052600;28;20443;-72
2021/03/20 11:05:13;;;;;;;2.60;1.30;;;;;;;6.83;26.69;102543.59;5052864;28;20044;-72
2021/03/20 11:07:49;;;;;;;2.70;1.50;;;;;;;6.88;27.36;102538.84;5048025;28;20052;-73
2021/03/20 11:10:23;;;;;;;3.05;1.30;;;;;;;6.92;28.81;102541.34;5053907;28;20119;-72
2021/03/20 11:12:52;;;;;;;3.28;1.52;;;;;;;6.99;28.92;102547.41;5039149;28;20065;-72
2021/03/20 11:15:25;;;;;;;2.92;1.42;;;;;;;7.07;28.52;102548.88;5047176;28;20053;-71
2021/03/20 11:17:56;;;;;;;3.30;1.48;;;;;;;7.13;28.36;102553.16;5049986;28;20037;-72
2021/03/20 11:20:31;;;;;;;2.63;1.60;;;;;;;7.21;27.08;102550.06;5037683;28;20037;-70
2021/03/20 11:22:59;;;;;;;3.28;1.70;;;;;;;7.24;28.73;102552.66;5055049;28;20033;-71
2021/03/20 11:25:32;;;;;;;3.05;1.60;;;;;;;7.31;28.05;102552.31;5036134;28;20120;-71
2021/03/20 11:28:03;;;;;;;;;;;;;;;7.09;28.09;102544.22;5050715;28;20094;-71
2021/03/20 11:30:39;;;;;;;2.65;1.27;;;;;;;7.38;28.19;102544.75;5045028;28;19921;-72
2021/03/20 11:33:14;;;;;;;2.33;1.38;;;;;;;7.49;26.61;102548.72;5061035;28;20094;-73
2021/03/20 11:35:45;;;;;;;2.38;1.23;;;;;;;7.54;27.33;102543.06;5048205;28;20056;-73
2021/03/20 11:38:14;;;;;;;2.22;1.30;;;;;;;7.60;27.85;102548.22;5056448;28;20060;-73
2021/03/20 11:40:43;;;;;;;2.55;1.20;;;;;;;7.65;27.57;102542.59;5047597;28;20040;-72
2021/03/20 11:43:21;;;;;;;2.20;1.30;;;;;;;7.73;26.05;102533.09;5043462;28;20056;-72
2021/03/20 11:45:52;;;;;;;2.40;1.23;;;;;;;7.76;26.95;102541.09;5048520;28;20097;-72
2021/03/20 11:48:38;;;;;;;2.60;1.30;;;;;;;7.80;24.22;102526.38;5045915;28;20040;-71
2021/03/20 11:51:21;;;;;;;2.53;1.25;;;;;;;7.84;24.57;102522.53;5064712;28;20041;-73
2021/03/20 11:53:55;;;;;;;2.20;1.35;;;;;;;7.85;26.33;102529.75;5051117;28;20041;-73
2021/03/20 11:56:26;;;;;;;2.13;1.30;;;;;;;7.90;25.71;102525.94;5039462;28;20410;-73
2021/03/20 11:58:54;;;;;;;2.22;1.27;;;;;;;7.89;25.55;102519.59;5051229;28;20049;-73
2021/03/20 12:01:29;;;;;;;2.58;1.08;;;;;;;7.91;22.76;102522.22;5017305;28;20045;-73
2021/03/20 12:04:00;;;;;;;3.00;1.20;;;;;;;7.91;24.22;102512.22;5034069;28;20194;-73
2021/03/20 12:06:31;;;;;;;2.15;1.30;;;;;;;7.93;24.18;102509.41;5055016;28;20500;-73
2021/03/20 12:09:00;;;;;;;2.92;1.35;;;;;;;7.95;25.16;102502.94;5026361;28;20069;-73
2021/03/20 12:11:55;;;;;;;2.03;1.15;;;;;;;7.98;23.04;102494.63;5046962;28;20039;-73
2021/03/20 12:14:35;;;;;;;2.22;1.38;;;;;;;8.02;22.99;102493.50;5061424;28;20451;-72
2021/03/20 12:17:11;;;;;;;2.55;1.33;;;;;;;8.04;24.74;102491.59;5048710;28;20041;-72